Time;durP1;ratioP1;P1;durP2;ratioP2;P2;SDS_P1;SDS_P2;PMS_P1;PMS_P2;Temp;Humidity;BMP_temperature;BMP_pressure;BME280_temperature;BME280_humidity;BME280_pressure;Samples;Min_cycle;Max_cycle;Signal;HPM_P1;HPM_P2
2023/02/26 00:01:11;;;;;;;6.00;1.90;;;1.70;1.00;;;;;;5053954;28;20486;-58
2023/02/26 00:03:36;;;;;;;6.43;1.75;;;1.60;1.00;;;;;;5068913;28;20869;-58
2023/02/26 00:06:02;;;;;;;5.37;1.70;;;1.50;1.00;;;;;;5083497;28;20420;-57
2023/02/26 00:08:30;;;;;;;5.70;1.10;;;1.40;1.00;;;;;;5089003;28;20564;-58
2023/02/26 00:10:56;;;;;;;8.30;1.65;;;1.40;1.00;;;;;;5089265;28;20389;-57
2023/02/26 00:13:22;;;;;;;6.45;1.65;;;1.20;1.00;;;;;;5088484;28;20398;-57
2023/02/26 00:15:53;;;;;;;5.60;1.35;;;1.20;1.00;;;;;;5089747;28;20374;-57
2023/02/26 00:18:19;;;;;;;5.70;1.20;;;1.00;1.00;;;;;;5088148;28;21081;-57
2023/02/26 00:20:45;;;;;;;5.90;1.60;;;1.10;1.00;;;;;;5086754;28;20406;-57
2023/02/26 00:23:15;;;;;;;6.13;1.40;;;1.00;1.00;;;;;;5088507;28;20911;-57
2023/02/26 00:25:41;;;;;;;7.53;1.55;;;0.90;1.00;;;;;;5089506;28;20497;-57
2023/02/26 00:28:07;;;;;;;6.05;1.48;;;0.90;1.00;;;;;;5087981;28;20437;-58
2023/02/26 00:30:34;;;;;;;7.00;1.60;;;1.00;1.00;;;;;;5089306;28;20442;-57
2023/02/26 00:33:00;;;;;;;6.30;1.70;;;0.90;1.00;;;;;;5086830;28;20398;-57
2023/02/26 00:35:27;;;;;;;7.32;1.63;;;0.70;1.00;;;;;;5088814;28;20414;-57
2023/02/26 00:38:00;;;;;;;8.73;1.48;;;0.70;1.00;;;;;;5088798;28;20766;-57
2023/02/26 00:40:42;;;;;;;5.53;1.50;;;0.70;1.00;;;;;;5087289;28;20538;-57
2023/02/26 00:43:13;;;;;;;5.60;1.60;;;0.80;1.00;;;;;;5088999;28;20413;-57
2023/02/26 00:46:01;;;;;;;5.43;1.30;;;0.70;1.00;;;;;;5087756;28;20794;-57
2023/02/26 00:48:45;;;;;;;5.68;1.20;;;0.70;1.00;;;;;;5089183;28;20426;-58
2023/02/26 00:51:17;;;;;;;5.35;1.30;;;0.60;1.00;;;;;;5088574;28;20439;-58
2023/02/26 00:53:45;;;;;;;5.40;1.40;;;0.60;1.00;;;;;;5089089;28;20455;-57
2023/02/26 00:56:12;;;;;;;6.00;1.73;;;0.50;1.00;;;;;;5088805;28;20398;-58
2023/02/26 00:58:37;;;;;;;6.15;1.80;;;0.50;1.00;;;;;;5088698;28;20437;-57
2023/02/26 01:01:03;;;;;;;7.40;1.93;;;2.10;1.00;;;;;;5087683;28;20879;-57
2023/02/26 01:03:31;;;;;;;9.75;1.48;;;0.60;1.00;;;;;;5089155;28;20467;-57
2023/02/26 01:05:56;;;;;;;6.45;1.98;;;0.50;1.00;;;;;;5090177;28;20739;-57
2023/02/26 01:08:47;;;;;;;7.70;1.80;;;0.60;1.00;;;;;;5091639;28;20402;-57
2023/02/26 01:11:13;;;;;;;7.93;1.33;;;0.60;1.00;;;;;;5090891;28;20395;-57
2023/02/26 01:13:39;;;;;;;9.50;1.70;;;0.60;1.00;;;;;;5092276;28;20712;-58
2023/02/26 01:16:10;;;;;;;5.95;1.40;;;0.60;1.00;;;;;;5091395;28;20875;-58
2023/02/26 01:18:45;;;;;;;5.18;1.45;;;0.70;1.00;;;;;;5092139;28;20397;-57
2023/02/26 01:21:17;;;;;;;5.30;1.40;;;0.70;1.00;;;;;;5091449;28;20755;-57
2023/02/26 01:23:49;;;;;;;6.47;1.45;;;0.60;1.00;;;;;;5092825;28;20840;-57
2023/02/26 01:26:28;;;;;;;5.13;1.20;;;0.60;1.00;;;;;;5092019;28;20851;-57
2023/02/26 01:28:54;;;;;;;8.63;1.88;;;1.40;1.00;;;;;;5091723;28;20414;-57
2023/02/26 01:31:38;;;;;;;6.33;1.70;;;0.40;1.00;;;;;;5091116;28;20382;-57
2023/02/26 01:34:31;;;;;;;5.50;1.30;;;0.30;1.00;;;;;;5091201;28;20374;-57
2023/02/26 01:37:13;;;;;;;6.90;1.55;;;0.30;1.00;;;;;;5091850;28;20386;-57
2023/02/26 01:40:12;;;;;;;7.03;1.63;;;0.10;1.00;;;;;;5091431;28;20414;-57
2023/02/26 01:42:42;;;;;;;5.20;1.30;;;0.20;1.00;;;;;;5073721;28;20405;-57
2023/02/26 01:45:22;;;;;;;5.97;1.70;;;0.20;1.00;;;;;;5089808;28;20458;-58
2023/02/26 01:48:02;;;;;;;5.80;1.40;;;0.20;1.00;;;;;;5091878;28;20389;-57
2023/02/26 01:50:28;;;;;;;8.45;1.40;;;0.30;1.00;;;;;;5091969;28;20378;-57
2023/02/26 01:53:21;;;;;;;6.55;1.65;;;0.20;1.00;;;;;;5091362;28;20394;-58
2023/02/26 01:55:51;;;;;;;6.50;1.60;;;0.20;1.00;;;;;;5091482;28;20398;-57
2023/02/26 01:58:19;;;;;;;7.37;1.90;;;0.20;1.00;;;;;;5091138;28;20451;-57
2023/02/26 02:00:45;;;;;;;6.60;1.60;;;0.10;1.00;;;;;;5091634;28;20481;-57
2023/02/26 02:03:11;;;;;;;6.93;1.30;;;0.20;1.00;;;;;;5090498;28;20509;-57
2023/02/26 02:06:05;;;;;;;7.30;1.80;;;0.10;1.00;;;;;;5090571;28;20408;-57
2023/02/26 02:08:34;;;;;;;6.30;1.70;;;0.10;1.00;;;;;;5091111;28;20425;-57
2023/02/26 02:11:02;;;;;;;5.90;1.50;;;0.00;1.00;;;;;;5089618;28;20394;-58
2023/02/26 02:13:45;;;;;;;5.20;1.70;;;0.00;1.00;;;;;;5091172;28;20385;-57
2023/02/26 02:16:35;;;;;;;6.10;1.80;;;0.00;1.00;;;;;;5089707;28;20725;-57
2023/02/26 02:19:31;;;;;;;6.00;1.55;;;-0.10;1.00;;;;;;5089623;28;20817;-58
2023/02/26 02:22:14;;;;;;;9.93;2.58;;;-0.10;1.00;;;;;;5091594;28;20390;-57
2023/02/26 02:25:11;;;;;;;6.20;1.80;;;-0.20;1.00;;;;;;5090939;28;20426;-57
2023/02/26 02:28:05;;;;;;;6.50;1.90;;;-0.30;1.00;;;;;;5065802;28;20776;-57
2023/02/26 02:31:07;;;;;;;7.45;1.90;;;-0.40;99.90;;;;;;5090914;28;20459;-57
2023/02/26 02:33:45;;;;;;;6.10;1.42;;;-0.50;99.90;;;;;;5089045;28;20886;-57
2023/02/26 02:36:26;;;;;;;6.55;1.60;;;-0.60;99.90;;;;;;5090009;28;20382;-57
2023/02/26 02:39:01;;;;;;;5.22;1.27;;;-0.70;99.90;;;;;;5090432;28;20413;-57
2023/02/26 02:41:38;;;;;;;5.22;1.30;;;-0.70;99.90;;;;;;5090309;28;20887;-57
2023/02/26 02:44:09;;;;;;;7.40;1.70;;;-0.80;99.90;;;;;;5088908;28;20390;-57
2023/02/26 02:46:39;;;;;;;7.85;1.90;;;0.40;99.90;;;;;;5090433;28;20867;-57
2023/02/26 02:49:08;;;;;;;6.55;1.90;;;-1.00;99.90;;;;;;5089506;28;20390;-58
2023/02/26 02:51:50;;;;;;;6.90;1.60;;;-1.00;1.00;;;;;;5090096;28;20385;-57
2023/02/26 02:54:23;;;;;;;6.35;1.67;;;-1.00;1.00;;;;;;5089612;28;20451;-57
2023/02/26 02:57:06;;;;;;;4.97;1.40;;;-1.00;1.00;;;;;;5090200;28;20894;-57
2023/02/26 02:59:43;;;;;;;6.13;1.50;;;-0.20;1.00;;;;;;5089883;28;20512;-57
2023/02/26 03:02:20;;;;;;;6.50;1.85;;;-0.90;1.00;;;;;;5089390;28;20895;-57
2023/02/26 03:04:47;;;;;;;7.07;2.20;;;-0.80;1.00;;;;;;5090669;28;20428;-57
2023/02/26 03:07:13;;;;;;;6.15;1.90;;;-0.80;1.00;;;;;;5089532;28;20385;-57
2023/02/26 03:09:38;;;;;;;6.05;1.80;;;-0.70;1.00;;;;;;5090114;28;20398;-57
2023/02/26 03:12:04;;;;;;;6.22;1.50;;;-0.70;1.00;;;;;;5089327;28;20398;-58
2023/02/26 03:14:30;;;;;;;5.40;1.80;;;-0.60;1.00;;;;;;5090278;28;20827;-57
2023/02/26 03:17:01;;;;;;;7.65;2.00;;;-0.60;99.90;;;;;;5088542;28;20782;-58
2023/02/26 03:19:50;;;;;;;6.45;1.90;;;-0.50;99.90;;;;;;5089701;28;20425;-57
2023/02/26 03:22:48;;;;;;;6.00;2.00;;;-0.50;99.90;;;;;;5089104;28;20879;-57
2023/02/26 03:25:27;;;;;;;6.53;1.95;;;-0.50;99.90;;;;;;5089460;28;20429;-58
2023/02/26 03:28:24;;;;;;;6.15;1.60;;;-0.50;99.90;;;;;;5089059;28;20424;-57
2023/02/26 03:30:49;;;;;;;6.65;1.70;;;-0.60;99.90;;;;;;5090121;28;20393;-57
2023/02/26 03:33:27;;;;;;;7.27;1.70;;;-0.60;99.90;;;;;;5087362;28;20921;-57
2023/02/26 03:36:00;;;;;;;5.80;1.60;;;-0.70;99.90;;;;;;5089046;28;20459;-57
2023/02/26 03:38:46;;;;;;;7.63;1.92;;;-0.80;99.90;;;;;;5089218;28;20493;-57
2023/02/26 03:41:35;;;;;;;7.57;2.15;;;-0.90;99.90;;;;;;5089286;28;20397;-57
2023/02/26 03:44:10;;;;;;;7.47;2.10;;;-1.00;99.90;;;;;;5089475;28;20389;-58
2023/02/26 03:46:44;;;;;;;9.65;1.50;;;-1.00;99.90;;;;;;5089696;28;20967;-57
2023/02/26 03:49:16;;;;;;;5.95;1.70;;;-1.10;99.90;;;;;;5088720;28;20913;-57
2023/02/26 03:51:44;;;;;;;7.10;1.70;;;-1.20;99.90;;;;;;5089518;28;20401;-57
2023/02/26 03:54:52;;;;;;;7.00;1.60;;;-1.30;99.90;;;;;;5088976;28;20389;-57
2023/02/26 03:57:18;;;;;;;7.20;1.70;;;-1.30;99.90;;;;;;5045895;28;20500;-57
2023/02/26 03:59:44;;;;;;;7.25;1.90;;;-1.40;1.00;;;;;;5080396;28;20489;-55
2023/02/26 04:02:21;;;;;;;6.47;1.40;;;-1.50;1.00;;;;;;5088729;28;20390;-55
2023/02/26 04:04:55;;;;;;;5.10;1.43;;;-1.50;1.00;;;;;;5089478;28;20409;-55
2023/02/26 04:07:22;;;;;;;6.60;1.40;;;-1.50;1.00;;;;;;5088680;28;20389;-55
2023/02/26 04:09:49;;;;;;;6.80;1.80;;;-1.60;1.00;;;;;;5089448;28;20405;-55
2023/02/26 04:12:26;;;;;;;6.72;1.70;;;-1.60;78.50;;;;;;5088540;28;20397;-57
2023/02/26 04:14:52;;;;;;;6.10;1.60;;;-1.60;99.90;;;;;;5089192;28;20409;-57
2023/02/26 04:17:18;;;;;;;5.57;1.87;;;-1.60;99.90;;;;;;5089001;28;20374;-55
2023/02/26 04:19:44;;;;;;;5.45;1.45;;;-1.70;99.90;;;;;;5089682;28;20398;-55
2023/02/26 04:22:10;;;;;;;5.97;1.60;;;-1.80;1.00;;;;;;5088384;28;20481;-55
2023/02/26 04:24:35;;;;;;;8.90;1.83;;;-1.90;1.00;;;;;;5089293;28;20402;-56
2023/02/26 04:27:01;;;;;;;7.70;1.77;;;-1.90;1.00;;;;;;5089019;28;20453;-56
2023/02/26 04:29:26;;;;;;;5.40;1.38;;;-1.80;1.00;;;;;;5088730;28;20394;-55
2023/02/26 04:31:53;;;;;;;6.90;1.70;;;-1.80;1.00;;;;;;5089514;28;20390;-55
2023/02/26 04:34:19;;;;;;;6.68;1.60;;;-1.80;1.00;;;;;;5088665;28;20507;-55
2023/02/26 04:36:44;;;;;;;7.90;1.60;;;-1.90;1.00;;;;;;5089183;28;20483;-55
2023/02/26 04:39:10;;;;;;;6.90;2.07;;;-1.90;1.00;;;;;;5088312;28;20416;-55
2023/02/26 04:41:37;;;;;;;5.97;2.03;;;-1.90;1.00;;;;;;5092819;28;20386;-55
2023/02/26 04:44:03;;;;;;;6.15;1.48;;;-1.80;1.00;;;;;;5091889;28;20398;-55
2023/02/26 04:46:29;;;;;;;7.10;1.50;;;-1.70;1.00;;;;;;5093071;28;20469;-55
2023/02/26 04:48:54;;;;;;;5.40;1.70;;;-1.60;28.90;;;;;;5093086;28;20465;-55
2023/02/26 04:51:20;;;;;;;7.27;1.83;;;-1.40;99.90;;;;;;5092157;28;20431;-55
2023/02/26 04:53:46;;;;;;;6.25;1.60;;;-1.30;1.00;;;;;;5092491;28;20961;-55
2023/02/26 04:56:12;;;;;;;6.30;1.60;;;-1.30;99.90;;;;;;5092541;28;20882;-55
2023/02/26 04:58:37;;;;;;;5.78;1.80;;;-0.90;99.90;;;;;;5093116;28;20405;-55
2023/02/26 05:01:03;;;;;;;5.50;1.50;;;-1.30;5.80;;;;;;5092650;28;20485;-55
2023/02/26 05:03:29;;;;;;;5.30;1.50;;;-1.40;10.70;;;;;;5091998;28;20390;-55
2023/02/26 05:05:55;;;;;;;4.57;1.10;;;-1.50;1.00;;;;;;5091083;28;20402;-55
2023/02/26 05:08:20;;;;;;;5.05;1.10;;;-1.50;1.00;;;;;;5091530;28;20418;-55
2023/02/26 05:10:46;;;;;;;5.90;1.80;;;-1.40;1.00;;;;;;5092775;28;20388;-55
2023/02/26 05:13:11;;;;;;;5.50;1.57;;;-1.40;1.00;;;;;;5091794;28;20381;-55
2023/02/26 05:15:39;;;;;;;7.50;1.70;;;-1.30;1.00;;;;;;5092112;28;20394;-55
2023/02/26 05:18:07;;;;;;;6.60;1.80;;;-1.30;1.00;;;;;;5090328;28;20890;-56
2023/02/26 05:20:33;;;;;;;6.53;1.45;;;-1.20;1.00;;;;;;5091783;28;20390;-55
2023/02/26 05:22:58;;;;;;;5.63;1.70;;;-1.10;1.00;;;;;;5092441;28;20720;-55
2023/02/26 05:25:24;;;;;;;8.73;1.67;;;-1.10;1.00;;;;;;5091226;28;20390;-55
2023/02/26 05:27:49;;;;;;;5.88;1.98;;;-1.10;99.90;;;;;;5091787;28;20401;-55
2023/02/26 05:30:16;;;;;;;5.67;1.63;;;-1.10;99.90;;;;;;5091687;28;20546;-55
2023/02/26 05:32:41;;;;;;;7.63;1.80;;;-1.10;1.00;;;;;;5091725;28;20398;-55
2023/02/26 05:35:09;;;;;;;6.10;1.80;;;-1.10;1.00;;;;;;5089889;28;20743;-56
2023/02/26 05:37:35;;;;;;;6.32;1.95;;;-1.10;1.00;;;;;;5092340;28;20725;-55
2023/02/26 05:40:00;;;;;;;10.65;1.90;;;-1.10;1.00;;;;;;5090300;28;20425;-55
2023/02/26 05:42:26;;;;;;;7.13;2.00;;;-1.10;1.00;;;;;;5090975;28;20394;-55
2023/02/26 05:44:51;;;;;;;9.00;2.43;;;-1.10;99.90;;;;;;5091746;28;20401;-55
2023/02/26 05:47:17;;;;;;;6.35;1.50;;;-1.20;99.90;;;;;;5091026;28;20418;-55
2023/02/26 05:49:42;;;;;;;6.22;1.60;;;-1.20;99.90;;;;;;5085619;28;20723;-55
2023/02/26 05:52:08;;;;;;;6.03;1.70;;;-1.20;99.90;;;;;;5073450;28;20390;-55
2023/02/26 05:54:34;;;;;;;6.60;1.60;;;-1.30;1.00;;;;;;5091698;28;20494;-55
2023/02/26 05:57:00;;;;;;;5.75;1.70;;;-1.40;1.00;;;;;;5091713;28;20880;-55
2023/02/26 05:59:26;;;;;;;6.20;2.07;;;-1.30;1.00;;;;;;5089831;28;20430;-55
2023/02/26 06:01:52;;;;;;;5.70;1.60;;;-1.30;99.90;;;;;;5091203;28;20444;-55
2023/02/26 06:04:17;;;;;;;7.80;1.90;;;-1.30;99.90;;;;;;5089360;28;20397;-55
2023/02/26 06:06:43;;;;;;;6.82;1.65;;;-1.30;1.00;;;;;;5090936;28;20875;-55
2023/02/26 06:09:09;;;;;;;6.10;1.60;;;-1.30;99.90;;;;;;5090384;28;20473;-55
2023/02/26 06:11:34;;;;;;;5.87;1.60;;;-1.40;1.00;;;;;;5091441;28;20378;-55
2023/02/26 06:14:00;;;;;;;9.65;1.80;;;-1.40;1.00;;;;;;5091084;28;20760;-55
2023/02/26 06:16:26;;;;;;;7.00;1.92;;;-1.40;1.00;;;;;;5084069;28;20382;-55
2023/02/26 06:18:52;;;;;;;7.90;2.10;;;-1.30;1.00;;;;;;5068288;28;20417;-55
2023/02/26 06:21:17;;;;;;;5.70;1.80;;;-1.30;1.00;;;;;;5073069;28;20486;-55
2023/02/26 06:23:43;;;;;;;7.43;2.30;;;-1.30;1.00;;;;;;5062331;28;20876;-55
2023/02/26 06:26:09;;;;;;;8.25;2.20;;;-1.30;1.00;;;;;;5061580;28;20389;-55
2023/02/26 06:28:35;;;;;;;9.77;2.30;;;-1.20;99.90;;;;;;5063018;28;20486;-55
2023/02/26 06:31:01;;;;;;;7.00;2.20;;;-1.20;99.90;;;;;;5062153;28;20416;-55
2023/02/26 06:33:26;;;;;;;6.32;1.80;;;-1.20;99.90;;;;;;5063138;28;20397;-58
2023/02/26 06:35:52;;;;;;;7.80;2.50;;;-1.10;99.90;;;;;;5064513;28;20877;-58
2023/02/26 06:38:18;;;;;;;5.80;1.90;;;-1.10;99.90;;;;;;5075089;28;20445;-56
2023/02/26 06:40:46;;;;;;;6.20;2.20;;;-1.00;99.90;;;;;;5065674;28;20694;-55
2023/02/26 06:43:11;;;;;;;6.10;2.07;;;-0.80;99.90;;;;;;5058233;28;20412;-55
2023/02/26 06:45:37;;;;;;;6.77;2.57;;;-0.70;99.90;;;;;;5060864;28;20401;-58
2023/02/26 06:48:03;;;;;;;7.85;2.17;;;-0.60;99.90;;;;;;5060643;28;20460;-62
2023/02/26 06:50:30;;;;;;;7.07;2.33;;;-0.50;99.90;;;;;;5059669;28;20408;-58
2023/02/26 06:52:56;;;;;;;6.40;2.28;;;-0.30;99.90;;;;;;5057606;28;20431;-57
2023/02/26 06:55:25;;;;;;;7.97;1.90;;;-0.20;99.90;;;;;;5062204;28;20422;-58
2023/02/26 06:57:55;;;;;;;7.20;1.65;;;0.00;99.90;;;;;;5059656;28;20399;-58
2023/02/26 07:00:22;;;;;;;6.57;2.20;;;0.00;99.90;;;;;;5063871;28;20406;-57
2023/02/26 07:02:47;;;;;;;8.27;2.22;;;0.00;99.90;;;;;;5055589;28;20389;-57
2023/02/26 07:05:13;;;;;;;6.53;2.33;;;0.10;99.90;;;;;;5051250;28;20393;-56
2023/02/26 07:07:38;;;;;;;9.50;2.43;;;0.10;99.90;;;;;;5061157;28;20783;-57
2023/02/26 07:10:05;;;;;;;7.25;2.33;;;0.10;76.60;;;;;;5062511;28;20814;-56
2023/02/26 07:12:30;;;;;;;7.70;2.72;;;0.30;68.90;;;;;;5059972;28;20934;-56
2023/02/26 07:14:56;;;;;;;8.52;2.75;;;0.30;58.50;;;;;;5059418;28;20415;-56
2023/02/26 07:17:22;;;;;;;8.67;2.90;;;0.40;49.70;;;;;;5061065;28;20427;-56
2023/02/26 07:19:50;;;;;;;9.53;3.00;;;0.50;30.00;;;;;;5056179;28;20418;-56
2023/02/26 07:22:16;;;;;;;7.33;3.00;;;0.60;29.60;;;;;;5059879;28;20519;-57
2023/02/26 07:24:42;;;;;;;10.07;3.08;;;0.80;7.30;;;;;;5056642;28;20398;-56
2023/02/26 07:27:08;;;;;;;9.80;2.42;;;0.80;1.00;;;;;;5059458;28;20424;-57
2023/02/26 07:29:35;;;;;;;10.05;2.15;;;0.90;1.00;;;;;;5061847;28;20407;-56
2023/02/26 07:32:02;;;;;;;7.70;2.30;;;0.80;1.00;;;;;;5058450;28;20882;-56
2023/02/26 07:34:28;;;;;;;8.70;2.72;;;1.70;1.00;;;;;;5062726;28;20415;-56
2023/02/26 07:36:54;;;;;;;7.20;2.50;;;1.60;42.90;;;;;;5055907;28;20408;-64
2023/02/26 07:39:19;;;;;;;9.17;2.30;;;3.10;1.00;;;;;;5056464;28;20423;-59
2023/02/26 07:41:45;;;;;;;6.13;1.90;;;6.20;1.00;;;;;;5057670;28;20419;-58
2023/02/26 07:44:10;;;;;;;6.23;1.93;;;4.70;99.90;;;;;;5057799;28;20401;-57
2023/02/26 07:46:37;;;;;;;7.63;2.20;;;5.60;99.90;;;;;;5055200;28;20397;-57
2023/02/26 07:49:02;;;;;;;6.20;1.90;;;4.40;99.90;;;;;;5051280;28;20389;-57
2023/02/26 07:51:28;;;;;;;5.68;1.52;;;2.90;99.90;;;;;;5063248;28;20758;-57
2023/02/26 07:53:54;;;;;;;7.10;1.90;;;2.30;99.90;;;;;;5071266;28;20393;-56
2023/02/26 07:56:20;;;;;;;8.30;1.90;;;1.80;99.90;;;;;;5072295;28;20422;-56
2023/02/26 07:58:45;;;;;;;6.95;1.50;;;1.50;99.90;;;;;;5059849;28;20534;-56
2023/02/26 08:01:11;;;;;;;6.80;2.30;;;1.40;99.90;;;;;;5051916;28;20405;-56
2023/02/26 08:03:36;;;;;;;8.03;2.10;;;1.40;1.00;;;;;;5068011;28;20402;-56
2023/02/26 08:06:03;;;;;;;8.93;2.05;;;1.50;1.00;;;;;;5068665;28;20410;-56
2023/02/26 08:08:29;;;;;;;6.70;1.90;;;1.40;1.00;;;;;;5061695;28;20783;-56
2023/02/26 08:10:54;;;;;;;6.90;1.80;;;1.30;1.00;;;;;;5056632;28;20407;-56
2023/02/26 08:13:20;;;;;;;8.50;2.00;;;1.50;1.00;;;;;;5071222;28;20406;-57
2023/02/26 08:15:49;;;;;;;6.25;1.95;;;1.40;1.00;;;;;;5065163;28;20391;-58
2023/02/26 08:18:14;;;;;;;7.18;1.65;;;1.30;1.00;;;;;;5065398;28;20405;-55
2023/02/26 08:20:40;;;;;;;10.13;2.20;;;1.30;1.00;;;;;;5060539;28;20399;-56
2023/02/26 08:23:06;;;;;;;7.50;2.03;;;1.40;1.00;;;;;;5061018;28;20932;-56
2023/02/26 08:25:31;;;;;;;6.20;1.60;;;1.30;1.00;;;;;;5060379;28;20432;-56
2023/02/26 08:27:57;;;;;;;5.57;1.60;;;0.70;1.00;;;;;;5060039;28;20421;-56
2023/02/26 08:30:23;;;;;;;8.20;1.50;;;0.70;1.00;;;;;;5064716;28;20486;-56
2023/02/26 08:32:49;;;;;;;6.80;1.40;;;0.80;1.00;;;;;;5063888;28;20421;-58
2023/02/26 08:35:15;;;;;;;10.30;2.30;;;1.20;1.00;;;;;;5064831;28;20967;-56
2023/02/26 08:37:40;;;;;;;11.13;1.93;;;1.30;1.00;;;;;;5063881;28;20395;-56
2023/02/26 08:40:08;;;;;;;5.07;1.20;;;1.50;1.00;;;;;;5061842;28;20853;-57
2023/02/26 08:42:33;;;;;;;6.38;1.52;;;2.10;1.00;;;;;;5054700;28;20404;-56
2023/02/26 08:44:59;;;;;;;9.70;2.00;;;2.70;1.00;;;;;;5058457;28;20413;-57
2023/02/26 08:47:25;;;;;;;8.43;2.47;;;3.00;99.90;;;;;;5058760;28;20397;-56
2023/02/26 08:49:50;;;;;;;9.10;1.90;;;2.60;99.90;;;;;;5051825;28;20944;-57
2023/02/26 08:52:16;;;;;;;5.50;1.20;;;2.90;99.90;;;;;;5053400;28;20419;-57
2023/02/26 08:54:42;;;;;;;6.05;1.40;;;3.70;99.90;;;;;;5052069;28;20393;-56
2023/02/26 08:57:07;;;;;;;8.37;1.47;;;5.30;1.00;;;;;;5056025;28;20455;-57
2023/02/26 08:59:33;;;;;;;7.65;1.50;;;5.70;99.90;;;;;;5054615;28;20408;-56
2023/02/26 09:01:58;;;;;;;9.80;2.40;;;3.60;99.90;;;;;;5057207;28;20437;-57
2023/02/26 09:04:25;;;;;;;6.70;1.70;;;2.30;99.90;;;;;;5053043;28;20527;-58
2023/02/26 09:06:51;;;;;;;6.80;1.90;;;1.90;99.90;;;;;;5053649;28;20426;-59
2023/02/26 09:09:18;;;;;;;5.32;1.10;;;1.30;1.00;;;;;;5050519;28;20476;-58
2023/02/26 09:11:44;;;;;;;7.88;1.30;;;0.80;1.00;;;;;;5060125;28;20404;-56
2023/02/26 09:14:10;;;;;;;27.35;2.22;;;0.40;1.00;;;;;;5057698;28;20399;-56
2023/02/26 09:16:35;;;;;;;4.80;1.10;;;0.50;1.00;;;;;;5055228;28;20412;-55
2023/02/26 09:19:02;;;;;;;5.85;1.42;;;0.40;99.90;;;;;;5051496;28;20748;-55
2023/02/26 09:21:29;;;;;;;7.20;1.95;;;0.30;1.00;;;;;;5060767;28;20420;-55
2023/02/26 09:23:54;;;;;;;8.70;1.50;;;0.50;99.90;;;;;;5064934;28;20405;-55
2023/02/26 09:26:20;;;;;;;11.05;1.90;;;0.40;99.90;;;;;;5060515;28;20811;-58
2023/02/26 09:28:46;;;;;;;5.30;1.40;;;0.60;99.90;;;;;;5072458;28;20905;-55
2023/02/26 09:31:11;;;;;;;8.57;2.90;;;0.40;58.30;;;;;;5058014;28;20418;-56
2023/02/26 09:33:37;;;;;;;7.13;2.00;;;0.80;4.90;;;;;;5058248;28;20406;-55
2023/02/26 09:36:03;;;;;;;6.65;1.42;;;0.80;1.00;;;;;;5056180;28;20508;-56
2023/02/26 09:38:29;;;;;;;8.98;1.83;;;0.80;1.00;;;;;;5064428;28;20427;-56
2023/02/26 09:41:02;;;;;;;7.53;1.80;;;0.70;1.00;;;;;;5056807;28;20441;-58
2023/02/26 09:44:14;;;;;;;5.93;1.70;;;0.10;1.00;;;;;;5063800;28;20519;-55
2023/02/26 09:46:43;;;;;;;7.18;1.73;;;0.70;1.00;;;;;;5065959;28;20888;-58
2023/02/26 09:49:26;;;;;;;6.43;1.48;;;0.80;13.30;;;;;;5062840;28;20405;-57
2023/02/26 09:51:57;;;;;;;5.28;1.10;;;0.70;30.70;;;;;;5060576;28;20388;-55
2023/02/26 09:54:30;;;;;;;8.55;2.00;;;0.60;99.90;;;;;;5061856;28;20448;-56
2023/02/26 09:56:58;;;;;;;8.15;1.75;;;2.00;99.90;;;;;;5064931;28;20756;-55
2023/02/26 09:59:26;;;;;;;6.90;1.30;;;0.70;99.90;;;;;;5069537;28;20408;-55
2023/02/26 10:02:00;;;;;;;5.30;1.40;;;0.50;99.90;;;;;;5060486;28;20411;-55
2023/02/26 10:04:56;;;;;;;5.30;1.30;;;0.40;1.00;;;;;;5060558;28;20459;-56
2023/02/26 10:07:51;;;;;;;11.80;1.65;;;0.70;99.90;;;;;;5058833;28;20403;-56
2023/02/26 10:10:32;;;;;;;12.52;1.30;;;0.60;99.90;;;;;;5052334;28;20412;-55
2023/02/26 10:13:01;;;;;;;7.70;2.10;;;0.60;99.90;;;;;;5052663;28;20473;-55
2023/02/26 10:15:40;;;;;;;5.65;1.58;;;0.70;99.90;;;;;;5057476;28;20409;-56
2023/02/26 10:18:18;;;;;;;6.93;1.38;;;1.20;99.90;;;;;;5062931;28;20884;-56
2023/02/26 10:21:02;;;;;;;5.45;1.00;;;1.40;26.20;;;;;;5059374;28;20928;-55
2023/02/26 10:23:44;;;;;;;4.80;1.10;;;1.40;1.00;;;;;;5060512;28;20392;-56
2023/02/26 10:26:25;;;;;;;7.75;2.00;;;1.40;1.00;;;;;;5052614;28;20528;-56
2023/02/26 10:29:03;;;;;;;5.50;1.52;;;1.80;1.00;;;;;;5058079;28;20407;-55
2023/02/26 10:32:11;;;;;;;7.82;1.80;;;2.00;1.00;;;;;;5056444;28;20404;-55
2023/02/26 10:34:50;;;;;;;5.00;1.50;;;1.80;1.00;;;;;;5056420;28;20417;-54
2023/02/26 10:37:21;;;;;;;5.72;1.75;;;1.50;1.00;;;;;;5071523;28;20384;-57
2023/02/26 10:40:11;;;;;;;5.43;1.15;;;2.20;1.00;;;;;;5070601;28;20414;-57
2023/02/26 10:42:44;;;;;;;5.80;1.40;;;1.30;1.00;;;;;;5069307;28;20387;-57
2023/02/26 10:45:41;;;;;;;5.80;1.10;;;1.70;1.00;;;;;;5065532;28;20376;-58
2023/02/26 10:48:26;;;;;;;5.38;1.30;;;1.90;1.00;;;;;;5059505;28;20792;-58
2023/02/26 10:50:54;;;;;;;8.27;1.40;;;1.90;1.00;;;;;;5062139;28;20396;-57
2023/02/26 10:53:21;;;;;;;5.90;1.75;;;1.90;1.00;;;;;;5057971;28;20398;-58
2023/02/26 10:56:31;;;;;;;6.20;1.53;;;2.00;1.00;;;;;;5059911;28;20419;-56
2023/02/26 10:58:57;;;;;;;5.95;1.42;;;2.10;1.00;;;;;;5055507;28;20412;-56
2023/02/26 11:01:25;;;;;;;5.65;1.20;;;2.20;1.00;;;;;;5060107;28;20407;-57
2023/02/26 11:04:05;;;;;;;8.27;2.30;;;1.90;1.00;;;;;;5059922;28;20459;-58
2023/02/26 11:06:36;;;;;;;8.20;2.00;;;2.00;1.00;;;;;;5072641;28;20457;-57
2023/02/26 11:09:09;;;;;;;7.38;1.85;;;1.90;1.00;;;;;;5088727;28;20786;-58
2023/02/26 11:11:45;;;;;;;7.78;2.28;;;2.00;1.00;;;;;;5073845;28;20380;-58
2023/02/26 11:14:11;;;;;;;6.15;2.00;;;2.10;1.00;;;;;;5065292;28;20400;-56
2023/02/26 11:16:53;;;;;;;8.75;2.05;;;2.20;1.00;;;;;;5060287;28;20399;-58
2023/02/26 11:19:27;;;;;;;7.20;2.00;;;2.10;1.00;;;;;;5061743;28;20404;-56
2023/02/26 11:21:54;;;;;;;7.38;1.85;;;2.20;1.00;;;;;;5058543;28;20409;-56
2023/02/26 11:24:51;;;;;;;6.30;1.88;;;2.30;1.00;;;;;;5061696;28;20403;-56
2023/02/26 11:27:33;;;;;;;6.70;1.88;;;2.60;1.00;;;;;;5056126;28;20417;-57
2023/02/26 11:30:17;;;;;;;7.10;1.67;;;4.30;1.00;;;;;;5063203;28;20394;-56
2023/02/26 11:32:44;;;;;;;6.40;1.60;;;2.70;1.00;;;;;;5069905;28;20395;-57
2023/02/26 11:35:14;;;;;;;5.72;1.60;;;2.80;1.00;;;;;;5072262;28;20490;-58
2023/02/26 11:37:44;;;;;;;7.60;2.13;;;2.90;1.00;;;;;;5068170;28;20436;-57
2023/02/26 11:40:17;;;;;;;6.10;1.70;;;3.00;1.00;;;;;;5065908;28;20761;-57
2023/02/26 11:42:59;;;;;;;5.93;1.50;;;3.00;1.00;;;;;;5058563;28;20515;-57
2023/02/26 11:45:25;;;;;;;7.20;1.67;;;3.00;1.00;;;;;;5066318;28;20453;-56
2023/02/26 11:48:05;;;;;;;6.40;1.30;;;3.30;1.00;;;;;;5069413;28;20508;-56
2023/02/26 11:50:40;;;;;;;7.20;1.40;;;3.30;1.00;;;;;;5061149;28;20452;-56
2023/02/26 11:53:16;;;;;;;5.63;1.40;;;3.00;1.00;;;;;;5061852;28;20416;-58
2023/02/26 11:55:46;;;;;;;5.90;1.20;;;2.90;1.00;;;;;;5063540;28;20450;-56
2023/02/26 11:58:23;;;;;;;4.60;0.80;;;2.90;1.00;;;;;;5064208;28;21018;-55
2023/02/26 12:00:52;;;;;;;5.38;1.20;;;3.00;1.00;;;;;;5061385;28;20418;-56
2023/02/26 12:03:22;;;;;;;7.80;1.17;;;2.80;1.00;;;;;;5062765;28;20713;-56
2023/02/26 12:05:49;;;;;;;6.00;0.90;;;2.60;1.00;;;;;;5081640;28;20481;-56
2023/02/26 12:08:30;;;;;;;5.70;1.38;;;2.40;1.00;;;;;;5085066;28;20733;-55
2023/02/26 12:11:26;;;;;;;5.20;0.90;;;2.50;1.00;;;;;;5085013;28;20461;-57
2023/02/26 12:13:52;;;;;;;5.35;1.20;;;2.40;1.00;;;;;;5084136;28;20405;-56
2023/02/26 12:16:50;;;;;;;5.88;1.30;;;2.70;1.00;;;;;;5083958;28;20383;-56
2023/02/26 12:19:15;;;;;;;5.80;1.17;;;2.80;1.00;;;;;;5083559;28;20860;-55
2023/02/26 12:22:10;;;;;;;5.40;1.50;;;2.70;1.00;;;;;;5070930;28;20419;-56
2023/02/26 12:25:13;;;;;;;4.90;0.90;;;3.30;1.00;;;;;;5076624;28;20498;-55
2023/02/26 12:28:19;;;;;;;6.90;1.50;;;2.70;1.00;;;;;;5045951;28;20750;-56
2023/02/26 12:31:14;;;;;;;5.22;1.27;;;2.80;1.00;;;;;;5066351;28;20403;-56
2023/02/26 12:33:51;;;;;;;5.00;1.40;;;2.80;1.00;;;;;;5069984;28;20428;-56
2023/02/26 12:36:54;;;;;;;5.00;1.02;;;2.80;1.00;;;;;;5073692;28;20398;-56
2023/02/26 12:39:41;;;;;;;5.10;1.23;;;3.00;1.00;;;;;;5077813;28;20455;-56
2023/02/26 12:42:32;;;;;;;5.60;1.25;;;2.70;1.00;;;;;;5073259;28;20471;-56
2023/02/26 12:45:17;;;;;;;5.50;1.20;;;2.50;1.00;;;;;;5088886;28;20443;-56
2023/02/26 12:48:23;;;;;;;5.28;1.20;;;2.50;1.00;;;;;;5077081;28;20490;-56
2023/02/26 12:51:26;;;;;;;5.45;1.35;;;2.60;1.00;;;;;;5068940;28;20867;-56
2023/02/26 12:54:24;;;;;;;5.90;1.02;;;2.20;1.00;;;;;;5069037;28;20402;-56
2023/02/26 12:56:58;;;;;;;5.50;1.10;;;1.90;1.00;;;;;;5045406;28;20426;-56
2023/02/26 12:59:42;;;;;;;6.18;1.40;;;2.00;1.00;;;;;;5072153;28;20467;-55
2023/02/26 13:02:32;;;;;;;5.05;0.82;;;2.30;1.00;;;;;;5072677;28;20430;-56
2023/02/26 13:05:00;;;;;;;5.20;1.20;;;2.50;1.00;;;;;;5076221;28;20410;-55
2023/02/26 13:07:49;;;;;;;5.10;1.30;;;2.60;99.90;;;;;;5060414;28;20780;-55
2023/02/26 13:10:41;;;;;;;5.60;1.20;;;3.20;99.90;;;;;;5076633;28;20485;-56
2023/02/26 13:13:40;;;;;;;5.50;1.25;;;3.00;99.90;;;;;;5073966;28;20412;-57
2023/02/26 13:16:23;;;;;;;5.82;1.27;;;2.90;99.90;;;;;;5065665;28;20386;-56
2023/02/26 13:18:57;;;;;;;6.80;1.00;;;3.00;99.90;;;;;;5083326;28;20410;-55
2023/02/26 13:21:32;;;;;;;4.57;0.70;;;2.90;99.90;;;;;;5074477;28;20391;-56
2023/02/26 13:24:04;;;;;;;6.47;1.05;;;4.20;99.90;;;;;;5069510;28;20399;-56
2023/02/26 13:26:32;;;;;;;5.53;0.90;;;2.80;99.90;;;;;;5061646;28;20499;-56
2023/02/26 13:29:04;;;;;;;5.60;1.40;;;2.40;99.90;;;;;;5067139;28;20411;-56